createdAt,value
2023-05-07T00:01:47.126Z,101047.97
2023-05-07T00:04:16.510Z,101048.97
2023-05-07T00:06:44.302Z,101049.13
2023-05-07T00:09:12.150Z,101053.63
2023-05-07T00:11:40.364Z,101044.94
2023-05-07T00:14:07.974Z,101053.94
2023-05-07T00:16:35.856Z,101049.59
2023-05-07T00:19:03.521Z,101055.09
2023-05-07T00:21:34.208Z,101063.28
2023-05-07T00:24:01.832Z,101063.28
2023-05-07T00:26:29.658Z,101061.63
2023-05-07T00:28:57.638Z,101065.13
2023-05-07T00:31:25.619Z,101054.72
2023-05-07T00:33:54.259Z,101048.53
2023-05-07T00:36:22.620Z,101053.03
2023-05-07T00:38:51.622Z,101055.03
2023-05-07T00:41:19.739Z,101064.91
2023-05-07T00:43:47.297Z,101062.38
2023-05-07T00:46:17.216Z,101061.53
2023-05-07T00:48:47.050Z,101069.56
2023-05-07T00:51:15.275Z,101068.72
2023-05-07T00:53:43.215Z,101062.53
2023-05-07T00:56:12.709Z,101061.84
2023-05-07T00:58:40.755Z,101069.88
2023-05-07T01:01:09.369Z,101066.38
2023-05-07T01:03:37.282Z,101063.78
2023-05-07T01:06:06.890Z,101057.59
2023-05-07T01:08:36.091Z,101055.09
2023-05-07T01:11:04.560Z,101055.09
2023-05-07T01:13:35.645Z,101050.72
2023-05-07T01:16:04.314Z,101051.72
2023-05-07T01:18:32.639Z,101050.88
2023-05-07T01:21:03.218Z,101052.00
2023-05-07T01:23:32.682Z,101053.84
2023-05-07T01:26:05.779Z,101052.19
2023-05-07T01:28:36.215Z,101058.53
2023-05-07T01:31:07.066Z,101049.78
2023-05-07T01:33:38.605Z,101047.94
2023-05-07T01:36:09.518Z,101045.75
2023-05-07T01:38:40.306Z,101052.09
2023-05-07T01:41:08.567Z,101049.56
2023-05-07T01:43:37.362Z,101049.72
2023-05-07T01:46:05.800Z,101046.38
2023-05-07T01:48:34.639Z,101041.16
2023-05-07T01:51:03.542Z,101042.97
2023-05-07T01:53:39.093Z,101043.97
2023-05-07T01:56:08.092Z,101048.50
2023-05-07T01:58:39.248Z,101044.16
2023-05-07T02:01:06.878Z,101048.78
2023-05-07T02:03:35.742Z,101042.75
2023-05-07T02:06:10.712Z,101045.59
2023-05-07T02:08:42.651Z,101046.72
2023-05-07T02:11:11.914Z,101056.59
2023-05-07T02:13:39.832Z,101050.41
2023-05-07T02:16:08.221Z,101049.72
2023-05-07T02:18:36.874Z,101054.38
2023-05-07T02:21:05.255Z,101052.69
2023-05-07T02:23:33.377Z,101055.50
2023-05-07T02:26:02.661Z,101062.03
2023-05-07T02:28:30.505Z,101063.03
2023-05-07T02:31:01.895Z,101054.28
2023-05-07T02:33:31.576Z,101065.13
2023-05-07T02:36:08.343Z,101060.78
2023-05-07T02:38:37.988Z,101054.72
2023-05-07T02:41:08.051Z,101051.22
2023-05-07T02:43:36.400Z,101054.88
2023-05-07T02:46:05.689Z,101051.38
2023-05-07T02:48:39.246Z,101052.38
2023-05-07T02:51:09.719Z,101048.00
2023-05-07T02:53:39.381Z,101045.50
2023-05-07T02:56:10.967Z,101047.47
2023-05-07T02:58:40.237Z,101051.13
2023-05-07T03:01:08.332Z,101040.88
2023-05-07T03:03:42.012Z,101049.72
2023-05-07T03:06:09.877Z,101043.03
2023-05-07T03:08:37.749Z,101041.31
2023-05-07T03:11:08.856Z,101044.16
2023-05-07T03:13:37.768Z,101049.66
2023-05-07T03:16:31.022Z,101041.06
2023-05-07T03:18:59.082Z,101037.72
2023-05-07T03:21:27.345Z,101038.16
2023-05-07T03:23:56.231Z,101039.31
2023-05-07T03:26:24.338Z,101039.47
2023-05-07T03:28:54.248Z,101032.88
2023-05-07T03:31:23.261Z,101037.34
2023-05-07T03:33:53.233Z,101040.19
2023-05-07T03:36:21.818Z,101039.50
2023-05-07T03:38:50.128Z,101039.50
2023-05-07T03:41:21.220Z,101041.19
2023-05-07T03:43:48.864Z,101045.13
2023-05-07T03:46:18.220Z,101052.78
2023-05-07T03:48:48.602Z,101051.06
2023-05-07T03:51:18.386Z,101061.06
2023-05-07T03:53:46.419Z,101060.38
2023-05-07T03:56:14.023Z,101071.66
2023-05-07T03:58:42.824Z,101066.44
2023-05-07T04:01:13.002Z,101064.06
2023-05-07T04:03:43.309Z,101072.25
2023-05-07T04:06:11.527Z,101067.72
2023-05-07T04:08:39.303Z,101073.06
2023-05-07T04:11:09.199Z,101066.91
2023-05-07T04:13:38.492Z,101075.88
2023-05-07T04:16:09.309Z,101070.53
2023-05-07T04:21:35.257Z,101073.31
2023-05-07T04:24:04.969Z,101075.59
2023-05-07T04:26:34.246Z,101073.91
2023-05-07T04:29:03.050Z,101063.38
2023-05-07T04:31:36.287Z,101073.22
2023-05-07T04:34:05.134Z,101066.03
2023-05-07T04:36:35.110Z,101072.50
2023-05-07T04:39:08.044Z,101077.84
2023-05-07T04:41:37.992Z,101084.59
2023-05-07T04:44:07.709Z,101078.00
2023-05-07T04:46:36.309Z,101081.38
2023-05-07T04:49:04.259Z,101088.81
2023-05-07T04:51:33.588Z,101076.31
2023-05-07T04:54:03.220Z,101079.81
2023-05-07T04:56:32.226Z,101078.00
2023-05-07T04:59:01.819Z,101085.84
2023-05-07T05:01:32.260Z,101082.66
2023-05-07T05:04:24.238Z,101087.97
2023-05-07T05:06:52.343Z,101091.19
2023-05-07T05:09:24.969Z,101080.38
2023-05-07T05:11:52.816Z,101088.25
2023-05-07T05:14:20.422Z,101089.78
2023-05-07T05:16:48.265Z,101093.84
2023-05-07T05:19:16.674Z,101096.28
2023-05-07T05:21:48.243Z,101089.09
2023-05-07T05:24:18.794Z,101096.28
2023-05-07T05:26:49.272Z,101094.44
2023-05-07T05:29:17.167Z,101097.13
2023-05-07T05:32:10.911Z,101104.84
2023-05-07T05:34:38.877Z,101109.91
2023-05-07T05:37:07.735Z,101105.09
2023-05-07T05:39:37.101Z,101101.59
2023-05-07T05:42:06.580Z,101103.56
2023-05-07T05:44:36.620Z,101108.75
2023-05-07T05:47:05.002Z,101104.81
2023-05-07T05:49:33.944Z,101108.19
2023-05-07T05:52:04.243Z,101110.69
2023-05-07T05:54:32.974Z,101123.63
2023-05-07T05:57:00.679Z,101111.81
2023-05-07T05:59:30.172Z,101122.38
2023-05-07T06:01:58.010Z,101109.00
2023-05-07T06:04:25.744Z,101117.69
2023-05-07T06:06:53.835Z,101120.22
2023-05-07T06:09:21.960Z,101119.09
2023-05-07T06:11:50.724Z,101120.19
2023-05-07T06:14:19.307Z,101122.03
2023-05-07T06:16:48.827Z,101123.56
2023-05-07T06:19:18.998Z,101127.09
2023-05-07T06:21:46.868Z,101137.34
2023-05-07T06:24:14.539Z,101137.22
2023-05-07T06:26:42.237Z,101137.06
2023-05-07T06:29:34.215Z,101140.13
2023-05-07T06:32:16.601Z,101136.03
2023-05-07T06:34:45.729Z,101139.53
2023-05-07T06:37:16.029Z,101142.22
2023-05-07T06:40:04.455Z,101144.75
2023-05-07T06:42:34.342Z,101143.31
2023-05-07T06:45:18.796Z,101148.22
2023-05-07T06:47:52.267Z,101154.81
2023-05-07T06:50:20.126Z,101156.19
2023-05-07T06:52:48.262Z,101157.00
2023-05-07T06:55:42.563Z,101157.56
2023-05-07T06:58:17.263Z,101158.66
2023-05-07T07:00:45.298Z,101159.38
2023-05-07T07:03:14.329Z,101158.06
2023-05-07T07:05:43.846Z,101166.03
2023-05-07T07:08:12.253Z,101159.84
2023-05-07T07:10:41.253Z,101160.38
2023-05-07T07:13:12.422Z,101158.25
2023-05-07T07:15:43.555Z,101162.59
2023-05-07T07:18:11.307Z,101164.16
2023-05-07T07:20:42.277Z,101166.50
2023-05-07T07:23:14.941Z,101162.13
2023-05-07T07:25:43.728Z,101166.16
2023-05-07T07:28:12.522Z,101161.66
2023-05-07T07:30:41.791Z,101161.66
2023-05-07T07:33:10.383Z,101168.13
2023-05-07T07:35:39.691Z,101166.28
2023-05-07T07:38:09.804Z,101170.03
2023-05-07T07:40:37.726Z,101165.88
2023-05-07T07:45:59.615Z,101169.56
2023-05-07T07:48:31.245Z,101164.44
2023-05-07T07:50:59.972Z,101166.88
2023-05-07T07:53:29.327Z,101166.53
2023-05-07T07:56:00.246Z,101169.75
2023-05-07T07:58:33.835Z,101172.13
2023-05-07T08:01:01.799Z,101173.50
2023-05-07T08:03:33.392Z,101170.88
2023-05-07T08:06:02.552Z,101170.09
2023-05-07T08:08:33.300Z,101166.47
2023-05-07T08:11:01.275Z,101169.75
2023-05-07T08:13:33.289Z,101167.47
2023-05-07T08:16:01.690Z,101175.22
2023-05-07T08:18:30.223Z,101184.78
2023-05-07T08:21:00.947Z,101178.09
2023-05-07T08:23:29.735Z,101177.78
2023-05-07T08:25:59.261Z,101176.16
2023-05-07T08:28:29.677Z,101182.06
2023-05-07T08:31:00.786Z,101182.75
2023-05-07T08:33:32.345Z,101179.09
2023-05-07T08:36:00.347Z,101181.78
2023-05-07T08:38:28.275Z,101187.47
2023-05-07T08:40:56.303Z,101188.84
2023-05-07T08:43:29.625Z,101189.00
2023-05-07T08:45:58.296Z,101188.66
2023-05-07T08:48:31.632Z,101187.16
2023-05-07T08:51:15.768Z,101192.72
2023-05-07T08:53:44.362Z,101196.25
2023-05-07T08:56:17.127Z,101191.69
2023-05-07T08:58:46.373Z,101196.25
2023-05-07T09:01:16.083Z,101187.53
2023-05-07T09:03:47.335Z,101190.56
2023-05-07T09:06:42.847Z,101190.94
2023-05-07T09:09:16.686Z,101185.88
2023-05-07T09:11:44.179Z,101189.75
2023-05-07T09:14:14.865Z,101185.25
2023-05-07T09:16:45.868Z,101190.34
2023-05-07T09:19:15.358Z,101187.31
2023-05-07T09:21:47.273Z,101188.00
2023-05-07T09:24:17.626Z,101180.47
2023-05-07T09:26:46.727Z,101174.09
2023-05-07T09:29:19.355Z,101178.97
2023-05-07T09:31:49.302Z,101180.47
2023-05-07T09:34:19.170Z,101181.97
2023-05-07T09:36:48.935Z,101172.91
2023-05-07T09:39:20.476Z,101180.31
2023-05-07T09:41:50.292Z,101185.16
2023-05-07T09:44:27.685Z,101182.81
2023-05-07T09:47:01.601Z,101182.28
2023-05-07T09:49:38.427Z,101186.69
2023-05-07T09:52:11.451Z,101180.31
2023-05-07T09:54:46.365Z,101182.63
2023-05-07T09:57:17.368Z,101193.22
2023-05-07T09:59:52.223Z,101185.97
2023-05-07T10:02:22.006Z,101188.66
2023-05-07T10:04:54.340Z,101182.94
2023-05-07T10:07:27.350Z,101175.53
2023-05-07T10:09:59.584Z,101182.91
2023-05-07T10:12:39.949Z,101181.56
2023-05-07T10:15:17.282Z,101173.81
2023-05-07T10:17:54.476Z,101181.34
2023-05-07T10:20:23.454Z,101173.41
2023-05-07T10:22:52.331Z,101179.44
2023-05-07T10:25:30.221Z,101179.19
2023-05-07T10:28:05.741Z,101185.53
2023-05-07T10:31:11.309Z,101185.53
2023-05-07T10:33:50.272Z,101171.94
2023-05-07T10:36:22.298Z,101186.31
2023-05-07T10:38:52.361Z,101192.31
2023-05-07T10:41:22.119Z,101193.97
2023-05-07T10:43:51.717Z,101192.78
2023-05-07T10:46:26.377Z,101190.19
2023-05-07T10:49:12.925Z,101194.88
2023-05-07T10:52:41.145Z,101197.22
2023-05-07T10:55:26.139Z,101196.22
2023-05-07T11:01:05.781Z,101177.16
2023-05-07T11:04:17.283Z,101192.53
2023-05-07T11:07:26.372Z,101186.97
2023-05-07T11:10:04.818Z,101189.28
2023-05-07T11:12:56.672Z,101194.69
2023-05-07T11:15:46.860Z,101182.81
2023-05-07T11:18:48.864Z,101177.31
2023-05-07T11:21:33.986Z,101170.06
2023-05-07T11:24:11.003Z,101182.88
2023-05-07T11:26:52.855Z,101173.59
2023-05-07T11:29:24.419Z,101175.19
2023-05-07T11:31:59.476Z,101175.13
2023-05-07T11:34:35.527Z,101181.47
2023-05-07T11:37:03.604Z,101171.84
2023-05-07T11:39:43.678Z,101175.97
2023-05-07T11:42:28.226Z,101175.28
2023-05-07T11:45:26.175Z,101172.53
2023-05-07T11:47:54.693Z,101171.25
2023-05-07T11:50:24.396Z,101166.31
2023-05-07T11:52:54.274Z,101170.25
2023-05-07T11:55:22.847Z,101172.88
2023-05-07T11:57:51.258Z,101165.25
2023-05-07T12:00:19.308Z,101164.50
2023-05-07T12:02:47.682Z,101162.47
2023-05-07T12:05:18.298Z,101161.03
2023-05-07T12:07:48.235Z,101165.41
2023-05-07T12:10:16.177Z,101166.72
2023-05-07T12:12:47.599Z,101164.84
2023-05-07T12:15:17.806Z,101175.06
2023-05-07T12:17:47.420Z,101169.19
2023-05-07T12:20:41.746Z,101174.50
2023-05-07T12:23:11.108Z,101184.88
2023-05-07T12:25:39.594Z,101182.03
2023-05-07T12:28:08.392Z,101181.84
2023-05-07T12:31:01.513Z,101177.84
2023-05-07T12:33:31.862Z,101180.47
2023-05-07T12:35:59.877Z,101179.44
2023-05-07T12:38:28.769Z,101183.94
2023-05-07T12:40:56.941Z,101172.28
2023-05-07T12:43:27.330Z,101174.34
2023-05-07T12:46:01.335Z,101176.66
2023-05-07T12:48:30.055Z,101177.22
2023-05-07T12:50:58.610Z,101167.81
2023-05-07T12:53:29.668Z,101166.28
2023-05-07T12:56:00.488Z,101178.75
2023-05-07T12:58:30.343Z,101172.31
2023-05-07T13:01:01.388Z,101171.69
2023-05-07T13:03:30.809Z,101174.63
2023-05-07T13:06:00.603Z,101172.31
2023-05-07T13:08:33.340Z,101170.44
2023-05-07T13:11:04.411Z,101170.25
2023-05-07T13:13:32.916Z,101174.53
2023-05-07T13:16:01.289Z,101170.22
2023-05-07T13:18:32.474Z,101174.19
2023-05-07T13:21:01.143Z,101173.56
2023-05-07T13:23:57.287Z,101166.28
2023-05-07T13:26:26.590Z,101178.59
2023-05-07T13:28:55.407Z,101169.44
2023-05-07T13:31:23.306Z,101170.66
2023-05-07T13:33:54.328Z,101177.34
2023-05-07T13:36:21.979Z,101178.19
2023-05-07T13:38:49.706Z,101176.31
2023-05-07T13:41:18.732Z,101171.88
2023-05-07T13:43:46.535Z,101182.84
2023-05-07T13:46:14.931Z,101174.06
2023-05-07T13:48:42.765Z,101175.09
2023-05-07T13:51:11.908Z,101176.66
2023-05-07T13:53:40.794Z,101173.75
2023-05-07T13:56:09.379Z,101178.84
2023-05-07T13:58:44.871Z,101176.00
2023-05-07T14:01:20.346Z,101181.56
2023-05-07T14:03:48.160Z,101185.38
2023-05-07T14:06:15.950Z,101184.34
2023-05-07T14:08:43.524Z,101190.31
2023-05-07T14:11:11.097Z,101184.56
2023-05-07T14:13:40.074Z,101176.44
2023-05-07T14:16:11.737Z,101182.69
2023-05-07T14:18:39.536Z,101183.16
2023-05-07T14:21:08.459Z,101184.88
2023-05-07T14:23:37.052Z,101187.16
2023-05-07T14:26:04.833Z,101190.41
2023-05-07T14:28:32.458Z,101194.84
2023-05-07T14:31:01.833Z,101190.06
2023-05-07T14:33:30.393Z,101194.44
2023-05-07T14:35:58.841Z,101190.91
2023-05-07T14:38:26.453Z,101192.97
2023-05-07T14:40:56.675Z,101200.47
2023-05-07T14:43:29.327Z,101195.91
2023-05-07T14:45:57.959Z,101197.41
2023-05-07T14:48:27.248Z,101190.34
2023-05-07T14:50:54.828Z,101194.31
2023-05-07T14:53:22.719Z,101194.72
2023-05-07T14:55:51.298Z,101196.59
2023-05-07T14:58:19.986Z,101195.75
2023-05-07T15:00:47.806Z,101200.97
2023-05-07T15:03:16.261Z,101193.88
2023-05-07T15:05:47.708Z,101191.94
2023-05-07T15:08:15.324Z,101191.63
2023-05-07T15:10:43.767Z,101199.66
2023-05-07T15:13:14.718Z,101195.09
2023-05-07T15:15:44.377Z,101195.72
2023-05-07T15:18:11.976Z,101209.44
2023-05-07T15:20:39.640Z,101205.63
2023-05-07T15:23:11.075Z,101208.25
2023-05-07T15:25:40.234Z,101211.78
2023-05-07T15:28:08.307Z,101209.09
2023-05-07T15:30:35.879Z,101212.44
2023-05-07T15:33:04.381Z,101216.16
2023-05-07T15:35:32.338Z,101210.75
2023-05-07T15:37:59.890Z,101209.91
2023-05-07T15:40:29.336Z,101211.97
2023-05-07T15:42:58.303Z,101208.16
2023-05-07T15:45:27.312Z,101213.19
2023-05-07T15:48:20.647Z,101211.91
2023-05-07T15:50:48.297Z,101209.75
2023-05-07T15:53:15.918Z,101211.53
2023-05-07T15:55:46.244Z,101218.59
2023-05-07T15:58:15.857Z,101222.50
2023-05-07T16:01:08.290Z,101220.63
2023-05-07T16:06:33.769Z,101225.59
2023-05-07T16:09:03.293Z,101224.09
2023-05-07T16:11:34.317Z,101221.88
2023-05-07T16:14:02.232Z,101219.34
2023-05-07T16:16:30.304Z,101220.75
2023-05-07T16:18:58.166Z,101222.78
2023-05-07T16:21:25.930Z,101219.22
2023-05-07T16:23:53.562Z,101221.59
2023-05-07T16:26:21.257Z,101223.06
2023-05-07T16:28:51.580Z,101222.03
2023-05-07T16:31:19.520Z,101223.06
2023-05-07T16:33:47.175Z,101224.72
2023-05-07T16:36:16.321Z,101215.78
2023-05-07T16:38:44.718Z,101221.63
2023-05-07T16:41:14.355Z,101228.53
2023-05-07T16:43:42.408Z,101223.19
2023-05-07T16:46:13.439Z,101223.25
2023-05-07T16:48:41.398Z,101219.69
2023-05-07T16:51:12.908Z,101218.56
2023-05-07T16:53:40.545Z,101221.84
2023-05-07T16:56:08.473Z,101231.69
2023-05-07T16:58:36.226Z,101228.56
2023-05-07T17:01:03.968Z,101225.19
2023-05-07T17:03:33.269Z,101230.97
2023-05-07T17:06:01.179Z,101225.91
2023-05-07T17:08:28.761Z,101232.97
2023-05-07T17:10:56.318Z,101240.31
2023-05-07T17:13:24.064Z,101238.50
2023-05-07T17:15:51.750Z,101234.28
2023-05-07T17:18:19.330Z,101233.66
2023-05-07T17:20:48.342Z,101234.38
2023-05-07T17:23:16.559Z,101243.47
2023-05-07T17:25:45.435Z,101251.41
2023-05-07T17:28:13.445Z,101248.25
2023-05-07T17:30:41.079Z,101248.91
2023-05-07T17:33:20.234Z,101256.34
2023-05-07T17:35:50.482Z,101259.56
2023-05-07T17:38:18.198Z,101262.78
2023-05-07T17:40:46.003Z,101261.09
2023-05-07T17:43:14.368Z,101262.28
2023-05-07T17:45:42.462Z,101268.88
2023-05-07T17:48:11.174Z,101264.00
2023-05-07T17:50:39.028Z,101269.44
2023-05-07T17:53:09.723Z,101276.53
2023-05-07T17:55:40.346Z,101276.69
2023-05-07T17:58:09.826Z,101284.63
2023-05-07T18:00:39.481Z,101281.59
2023-05-07T18:03:07.233Z,101293.75
2023-05-07T18:05:37.617Z,101290.53
2023-05-07T18:08:05.458Z,101297.13
2023-05-07T18:10:34.472Z,101288.72
2023-05-07T18:13:02.168Z,101286.53
2023-05-07T18:15:30.081Z,101299.31
2023-05-07T18:17:57.890Z,101298.16
2023-05-07T18:20:25.714Z,101298.50
2023-05-07T18:22:53.409Z,101304.19
2023-05-07T18:25:23.338Z,101300.16
2023-05-07T18:27:52.332Z,101304.38
2023-05-07T18:30:20.093Z,101308.38
2023-05-07T18:32:47.680Z,101315.94
2023-05-07T18:35:17.336Z,101316.63
2023-05-07T18:37:44.911Z,101323.50
2023-05-07T18:40:14.660Z,101328.72
2023-05-07T18:42:42.476Z,101321.31
2023-05-07T18:45:12.349Z,101327.88
2023-05-07T18:47:40.392Z,101327.34
2023-05-07T18:50:09.694Z,101330.53
2023-05-07T18:52:39.524Z,101341.94
2023-05-07T18:55:10.595Z,101342.59
2023-05-07T18:57:38.697Z,101342.41
2023-05-07T19:00:09.279Z,101345.28
2023-05-07T19:02:42.421Z,101350.13
2023-05-07T19:05:10.420Z,101347.94
2023-05-07T19:07:38.076Z,101355.31
2023-05-07T19:10:06.825Z,101350.28
2023-05-07T19:12:35.456Z,101355.97
2023-05-07T19:15:03.169Z,101359.47
2023-05-07T19:17:30.959Z,101359.13
2023-05-07T19:19:59.914Z,101363.81
2023-05-07T19:22:27.516Z,101368.19
2023-05-07T19:24:55.317Z,101371.53
2023-05-07T19:27:23.969Z,101371.00
2023-05-07T19:29:51.585Z,101375.81
2023-05-07T19:32:21.134Z,101376.00
2023-05-07T19:34:48.840Z,101372.59
2023-05-07T19:37:22.736Z,101380.16
2023-05-07T19:39:54.384Z,101380.34
2023-05-07T19:42:22.080Z,101383.16
2023-05-07T19:44:50.376Z,101394.06
2023-05-07T19:47:17.969Z,101393.56
2023-05-07T19:49:46.220Z,101398.22
2023-05-07T19:52:14.474Z,101395.03
2023-05-07T19:54:44.353Z,101401.72
2023-05-07T19:57:13.000Z,101400.34
2023-05-07T19:59:41.341Z,101409.56
2023-05-07T20:02:09.911Z,101405.31
2023-05-07T20:04:38.231Z,101411.88
2023-05-07T20:07:06.369Z,101412.16
2023-05-07T20:09:34.189Z,101417.19
2023-05-07T20:12:03.475Z,101414.81
2023-05-07T20:14:31.961Z,101417.78
2023-05-07T20:16:59.609Z,101415.59
2023-05-07T20:19:27.352Z,101416.72
2023-05-07T20:21:54.928Z,101415.66
2023-05-07T20:24:23.371Z,101426.00
2023-05-07T20:26:51.062Z,101427.34
2023-05-07T20:29:20.518Z,101425.13
2023-05-07T20:31:48.382Z,101418.06
2023-05-07T20:34:17.021Z,101427.69
2023-05-07T20:36:45.909Z,101424.78
2023-05-07T20:39:18.370Z,101427.97
2023-05-07T20:41:48.876Z,101427.97
2023-05-07T20:44:21.247Z,101430.34
2023-05-07T20:46:48.797Z,101428.81
2023-05-07T20:49:16.432Z,101438.88
2023-05-07T20:51:46.334Z,101436.78
2023-05-07T20:54:14.798Z,101438.91
2023-05-07T20:56:42.471Z,101437.41
2023-05-07T20:59:10.506Z,101450.94
2023-05-07T21:01:40.656Z,101451.09
2023-05-07T21:04:09.189Z,101447.00
2023-05-07T21:06:36.793Z,101447.47
2023-05-07T21:09:05.004Z,101450.28
2023-05-07T21:11:32.875Z,101451.19
2023-05-07T21:14:00.866Z,101459.53
2023-05-07T21:16:28.597Z,101454.59
2023-05-07T21:18:57.508Z,101460.72
2023-05-07T21:21:25.364Z,101458.34
2023-05-07T21:26:48.416Z,101459.63
2023-05-07T21:29:16.004Z,101462.56
2023-05-07T21:31:43.977Z,101462.88
2023-05-07T21:34:13.038Z,101467.56
2023-05-07T21:36:40.773Z,101466.84
2023-05-07T21:39:08.815Z,101462.47
2023-05-07T21:41:36.659Z,101464.06
2023-05-07T21:44:04.323Z,101466.16
2023-05-07T21:46:32.116Z,101463.09
2023-05-07T21:48:59.908Z,101464.78
2023-05-07T21:51:29.655Z,101456.47
2023-05-07T21:53:58.849Z,101461.97
2023-05-07T21:56:26.469Z,101465.66
2023-05-07T21:58:54.118Z,101458.03
2023-05-07T22:01:21.993Z,101470.06
2023-05-07T22:03:49.892Z,101465.38
2023-05-07T22:06:21.432Z,101471.88
2023-05-07T22:08:51.132Z,101467.50
2023-05-07T22:11:18.765Z,101480.88
2023-05-07T22:13:46.409Z,101471.88
2023-05-07T22:16:14.453Z,101468.75
2023-05-07T22:18:42.062Z,101466.94
2023-05-07T22:21:09.714Z,101461.03
2023-05-07T22:23:37.445Z,101462.16
2023-05-07T22:26:13.394Z,101464.13
2023-05-07T22:28:41.388Z,101464.41
2023-05-07T22:31:08.960Z,101463.13
2023-05-07T22:33:37.363Z,101466.22
2023-05-07T22:36:06.343Z,101465.97
2023-05-07T22:38:33.997Z,101472.31
2023-05-07T22:41:01.611Z,101473.44
2023-05-07T22:43:32.371Z,101477.38
2023-05-07T22:46:02.899Z,101487.50
2023-05-07T22:48:31.055Z,101476.09
2023-05-07T22:50:58.628Z,101478.25
2023-05-07T22:53:27.376Z,101481.03
2023-05-07T22:55:54.945Z,101486.69
2023-05-07T22:58:22.516Z,101485.25
2023-05-07T23:00:51.583Z,101486.50
2023-05-07T23:03:19.469Z,101478.91
2023-05-07T23:05:47.191Z,101474.81
2023-05-07T23:08:14.731Z,101480.56
2023-05-07T23:10:42.313Z,101475.53
2023-05-07T23:13:15.146Z,101482.97
2023-05-07T23:15:43.935Z,101481.53
2023-05-07T23:18:12.839Z,101475.63
2023-05-07T23:20:41.154Z,101478.72
2023-05-07T23:23:08.730Z,101474.63
2023-05-07T23:25:38.408Z,101480.50
2023-05-07T23:28:06.005Z,101483.59
2023-05-07T23:30:34.681Z,101487.53
2023-05-07T23:33:02.419Z,101486.25
2023-05-07T23:35:32.408Z,101485.75
2023-05-07T23:38:00.205Z,101490.41
2023-05-07T23:40:27.869Z,101481.66
2023-05-07T23:42:56.450Z,101488.66
2023-05-07T23:45:24.048Z,101484.72
2023-05-07T23:47:52.181Z,101487.91
2023-05-07T23:50:19.949Z,101486.34
2023-05-07T23:52:50.376Z,101481.13
2023-05-07T23:55:18.425Z,101483.25
2023-05-07T23:57:45.979Z,101483.34
